createdAt,value
2022-12-31T00:00:26.891Z,9.30
2022-12-31T00:02:57.667Z,9.30
2022-12-31T00:05:26.831Z,9.30
2022-12-31T00:07:59.377Z,9.30
2022-12-31T00:10:26.347Z,9.30
2022-12-31T00:12:53.262Z,9.30
2022-12-31T00:15:22.942Z,9.30
2022-12-31T00:17:49.920Z,9.30
2022-12-31T00:20:19.337Z,9.30
2022-12-31T00:22:46.200Z,9.40
2022-12-31T00:25:13.103Z,9.40
2022-12-31T00:27:39.852Z,9.30
2022-12-31T00:30:14.092Z,9.40
2022-12-31T00:32:43.296Z,9.40
2022-12-31T00:35:12.356Z,9.40
2022-12-31T00:37:39.149Z,9.40
2022-12-31T00:40:11.803Z,9.40
2022-12-31T00:42:40.757Z,9.40
2022-12-31T00:45:10.207Z,9.40
2022-12-31T00:47:37.033Z,9.40
2022-12-31T00:50:04.102Z,9.40
2022-12-31T00:52:30.933Z,9.40
2022-12-31T00:55:02.894Z,9.40
2022-12-31T00:57:29.711Z,9.40
2022-12-31T00:59:56.631Z,9.40
2022-12-31T01:02:25.734Z,9.30
2022-12-31T01:04:52.755Z,9.40
2022-12-31T01:07:19.601Z,9.40
2022-12-31T01:09:53.787Z,9.40
2022-12-31T01:12:20.601Z,9.40
2022-12-31T01:14:47.449Z,9.50
2022-12-31T01:17:14.386Z,9.50
2022-12-31T01:19:43.536Z,9.60
2022-12-31T01:22:10.449Z,9.60
2022-12-31T01:24:39.346Z,9.60
2022-12-31T01:27:07.193Z,9.60
2022-12-31T01:29:36.273Z,9.70
2022-12-31T01:32:03.228Z,9.70
2022-12-31T01:34:32.644Z,9.80
2022-12-31T01:37:01.696Z,9.80
2022-12-31T01:39:28.530Z,9.80
2022-12-31T01:41:55.446Z,9.80
2022-12-31T01:44:25.267Z,9.90
2022-12-31T01:46:56.280Z,9.90
2022-12-31T01:49:29.200Z,9.90
2022-12-31T01:52:39.858Z,10.00
2022-12-31T01:55:13.196Z,10.10
2022-12-31T01:57:44.302Z,10.10
2022-12-31T02:00:11.619Z,10.20
2022-12-31T02:02:41.320Z,10.20
2022-12-31T02:05:31.451Z,10.20
2022-12-31T02:08:00.641Z,10.30
2022-12-31T02:10:28.340Z,10.30
2022-12-31T02:12:58.040Z,10.30
2022-12-31T02:15:40.922Z,10.30
2022-12-31T02:18:30.430Z,10.40
2022-12-31T02:21:06.407Z,10.40
2022-12-31T02:24:14.626Z,10.40
2022-12-31T02:27:01.919Z,10.40
2022-12-31T02:30:00.881Z,10.40
2022-12-31T02:33:08.096Z,10.40
2022-12-31T02:35:48.586Z,10.40
2022-12-31T02:38:23.840Z,10.40
2022-12-31T02:40:56.359Z,10.40
2022-12-31T02:43:26.117Z,10.50
2022-12-31T02:46:05.117Z,10.50
2022-12-31T02:48:52.341Z,10.40
2022-12-31T02:51:25.051Z,10.40
2022-12-31T02:54:03.737Z,10.50
2022-12-31T02:57:01.590Z,10.50
2022-12-31T03:00:10.036Z,10.50
2022-12-31T03:02:42.052Z,10.50
2022-12-31T03:05:13.609Z,10.50
2022-12-31T03:07:44.031Z,10.50
2022-12-31T03:10:11.306Z,10.50
2022-12-31T03:12:46.719Z,10.50
2022-12-31T03:15:27.517Z,10.50
2022-12-31T03:17:57.239Z,10.50
2022-12-31T03:20:48.321Z,10.50
2022-12-31T03:23:19.601Z,10.60
2022-12-31T03:25:48.966Z,10.50
2022-12-31T03:28:18.380Z,10.60
2022-12-31T03:30:50.396Z,10.60
2022-12-31T03:33:17.800Z,10.60
2022-12-31T03:35:46.530Z,10.60
2022-12-31T03:38:14.276Z,10.60
2022-12-31T03:40:44.305Z,10.60
2022-12-31T03:43:11.450Z,10.60
2022-12-31T03:45:38.793Z,10.50
2022-12-31T03:48:07.711Z,10.60
2022-12-31T03:50:35.473Z,10.60
2022-12-31T03:53:02.460Z,10.60
2022-12-31T03:55:29.309Z,10.60
2022-12-31T03:57:56.167Z,10.60
2022-12-31T04:00:23.092Z,10.60
2022-12-31T04:02:51.206Z,10.60
2022-12-31T04:05:21.088Z,10.60
2022-12-31T04:07:52.094Z,10.60
2022-12-31T04:10:19.768Z,10.70
2022-12-31T04:12:47.122Z,10.70
2022-12-31T04:15:20.003Z,10.70
2022-12-31T04:17:47.856Z,10.70
2022-12-31T04:20:15.892Z,10.70
2022-12-31T04:22:45.043Z,10.80
2022-12-31T04:25:12.917Z,10.80
2022-12-31T04:27:43.575Z,10.80
2022-12-31T04:30:14.096Z,10.80
2022-12-31T04:32:43.564Z,10.80
2022-12-31T04:35:14.369Z,10.90
2022-12-31T04:37:41.217Z,10.90
2022-12-31T04:40:10.813Z,10.90
2022-12-31T04:42:41.991Z,10.90
2022-12-31T04:45:10.287Z,11.00
2022-12-31T04:47:39.719Z,11.00
2022-12-31T04:50:06.985Z,11.00
2022-12-31T04:52:42.437Z,11.00
2022-12-31T04:55:10.165Z,11.00
2022-12-31T04:57:36.997Z,11.00
2022-12-31T05:00:04.140Z,11.00
2022-12-31T05:02:33.259Z,11.00
2022-12-31T05:05:02.322Z,11.10
2022-12-31T05:07:29.142Z,11.10
2022-12-31T05:09:55.945Z,11.10
2022-12-31T05:12:25.276Z,11.10
2022-12-31T05:14:52.120Z,11.10
2022-12-31T05:17:20.710Z,11.10
2022-12-31T05:19:47.577Z,11.20
2022-12-31T05:22:29.457Z,11.20
2022-12-31T05:24:59.677Z,11.20
2022-12-31T05:27:28.097Z,11.30
2022-12-31T05:29:57.199Z,11.30
2022-12-31T05:32:24.059Z,11.30
2022-12-31T05:34:51.049Z,11.30
2022-12-31T05:37:17.872Z,11.40
2022-12-31T05:39:46.910Z,11.30
2022-12-31T05:42:16.021Z,11.30
2022-12-31T05:44:42.925Z,11.30
2022-12-31T05:47:12.019Z,11.30
2022-12-31T05:49:38.883Z,11.30
2022-12-31T05:52:06.703Z,11.30
2022-12-31T05:54:34.100Z,11.30
2022-12-31T05:57:00.944Z,11.30
2022-12-31T05:59:30.100Z,11.30
2022-12-31T06:01:57.486Z,11.30
2022-12-31T06:04:26.902Z,11.40
2022-12-31T06:06:53.825Z,11.40
2022-12-31T06:09:21.012Z,11.40
2022-12-31T06:11:47.878Z,11.40
2022-12-31T06:14:14.986Z,11.40
2022-12-31T06:16:44.140Z,11.40
2022-12-31T06:19:11.034Z,11.50
2022-12-31T06:21:40.379Z,11.40
2022-12-31T06:24:07.745Z,11.50
2022-12-31T06:26:37.194Z,11.50
2022-12-31T06:29:04.417Z,11.50
2022-12-31T06:31:34.004Z,11.50
2022-12-31T06:34:00.887Z,11.50
2022-12-31T06:36:27.831Z,11.50
2022-12-31T06:38:57.289Z,11.50
2022-12-31T06:41:24.436Z,11.60
2022-12-31T06:43:51.458Z,11.60
2022-12-31T06:46:21.078Z,11.60
2022-12-31T06:48:48.034Z,11.70
2022-12-31T06:51:21.719Z,11.70
2022-12-31T06:53:50.639Z,11.70
2022-12-31T06:56:31.229Z,11.80
2022-12-31T06:59:01.020Z,11.80
2022-12-31T07:01:36.877Z,11.80
2022-12-31T07:04:28.388Z,11.90
2022-12-31T07:07:28.729Z,11.90
2022-12-31T07:10:27.415Z,12.00
2022-12-31T07:13:08.420Z,12.10
2022-12-31T07:15:50.373Z,12.10
2022-12-31T07:18:50.228Z,12.20
2022-12-31T07:21:31.969Z,12.20
2022-12-31T07:23:59.035Z,12.20
2022-12-31T07:26:42.724Z,12.30
2022-12-31T07:29:30.024Z,12.30
2022-12-31T07:32:02.040Z,12.40
2022-12-31T07:34:55.926Z,12.50
2022-12-31T07:37:32.825Z,12.50
2022-12-31T07:40:20.835Z,12.50
2022-12-31T07:43:15.097Z,12.50
2022-12-31T07:45:45.051Z,12.60
2022-12-31T07:48:29.369Z,12.60
2022-12-31T07:50:57.675Z,12.70
2022-12-31T07:53:29.208Z,12.70
2022-12-31T07:56:00.136Z,12.70
2022-12-31T07:58:48.585Z,12.70
2022-12-31T08:01:30.851Z,12.80
2022-12-31T08:04:03.640Z,12.80
2022-12-31T08:06:42.491Z,12.90
2022-12-31T08:09:34.028Z,13.00
2022-12-31T08:12:03.974Z,13.00
2022-12-31T08:14:37.066Z,13.00
2022-12-31T08:17:04.161Z,13.10
2022-12-31T08:19:32.722Z,13.10
2022-12-31T08:22:11.732Z,13.20
2022-12-31T08:24:55.922Z,13.20
2022-12-31T08:27:47.674Z,13.20
2022-12-31T08:30:18.964Z,13.30
2022-12-31T08:32:54.371Z,13.30
2022-12-31T08:35:30.568Z,13.30
2022-12-31T08:38:20.477Z,13.40
2022-12-31T08:41:10.794Z,13.40
2022-12-31T08:43:43.748Z,13.40
2022-12-31T08:46:27.946Z,13.40
2022-12-31T08:48:57.388Z,13.50
2022-12-31T08:51:26.172Z,13.60
2022-12-31T08:53:55.200Z,13.60
2022-12-31T08:56:32.846Z,13.60
2022-12-31T08:59:19.674Z,13.70
2022-12-31T09:02:24.101Z,13.70
2022-12-31T09:05:09.912Z,13.70
2022-12-31T09:08:00.336Z,13.70
2022-12-31T09:10:32.224Z,13.70
2022-12-31T09:13:26.335Z,13.80
2022-12-31T09:16:09.476Z,13.80
2022-12-31T09:18:40.705Z,13.90
2022-12-31T09:21:11.511Z,13.90
2022-12-31T09:23:41.438Z,14.00
2022-12-31T09:26:42.379Z,14.00
2022-12-31T09:29:26.573Z,14.10
2022-12-31T09:32:07.134Z,14.20
2022-12-31T09:34:43.563Z,14.30
2022-12-31T09:37:21.951Z,14.40
2022-12-31T09:39:49.402Z,14.60
2022-12-31T09:42:22.522Z,14.70
2022-12-31T09:45:05.315Z,14.80
2022-12-31T09:52:34.924Z,14.80
2022-12-31T09:55:07.941Z,14.90
2022-12-31T09:58:05.461Z,15.00
2022-12-31T10:01:03.800Z,15.10
2022-12-31T10:04:17.459Z,15.20
2022-12-31T10:07:12.594Z,15.20
2022-12-31T10:09:59.871Z,15.30
2022-12-31T10:13:00.350Z,15.40
2022-12-31T10:15:40.353Z,15.40
2022-12-31T10:18:45.383Z,15.40
2022-12-31T10:21:27.215Z,15.40
2022-12-31T10:24:05.796Z,15.40
2022-12-31T10:26:55.588Z,15.50
2022-12-31T10:29:37.145Z,15.50
2022-12-31T10:32:12.923Z,15.50
2022-12-31T10:35:04.455Z,15.50
2022-12-31T10:37:45.265Z,15.50
2022-12-31T10:40:49.542Z,15.50
2022-12-31T10:43:28.564Z,15.50
2022-12-31T10:50:33.711Z,15.60
2022-12-31T10:53:42.088Z,15.60
2022-12-31T10:56:30.221Z,15.70
2022-12-31T10:59:12.189Z,15.70
2022-12-31T11:01:58.146Z,15.60
2022-12-31T11:04:27.444Z,15.60
2022-12-31T11:07:12.853Z,15.60
2022-12-31T11:09:51.674Z,15.50
2022-12-31T11:12:37.500Z,15.50
2022-12-31T11:15:20.713Z,15.50
2022-12-31T11:18:16.885Z,15.50
2022-12-31T11:21:06.473Z,15.40
2022-12-31T11:23:41.357Z,15.40
2022-12-31T11:26:34.778Z,15.40
2022-12-31T11:29:20.308Z,15.50
2022-12-31T11:31:58.062Z,15.50
2022-12-31T11:34:42.976Z,15.50
2022-12-31T11:37:36.767Z,15.50
2022-12-31T11:45:03.859Z,15.60
2022-12-31T11:48:33.679Z,15.70
2022-12-31T11:51:03.677Z,15.70
2022-12-31T11:53:42.816Z,15.80
2022-12-31T11:56:20.029Z,15.90
2022-12-31T11:58:52.677Z,15.90
2022-12-31T12:01:31.240Z,16.00
2022-12-31T12:04:01.401Z,16.00
2022-12-31T12:06:31.929Z,16.10
2022-12-31T12:09:13.523Z,16.10
2022-12-31T12:11:41.341Z,16.20
2022-12-31T12:14:41.843Z,16.20
2022-12-31T12:17:23.945Z,16.30
2022-12-31T12:19:57.365Z,16.30
2022-12-31T12:22:26.554Z,16.40
2022-12-31T12:25:15.722Z,16.30
2022-12-31T12:27:42.583Z,16.30
2022-12-31T12:30:24.621Z,16.30
2022-12-31T12:32:52.806Z,16.30
2022-12-31T12:35:39.883Z,16.30
2022-12-31T12:38:13.531Z,16.30
2022-12-31T12:40:52.475Z,16.40
2022-12-31T12:43:27.283Z,16.40
2022-12-31T12:45:59.706Z,16.40
2022-12-31T12:48:40.787Z,16.30
2022-12-31T12:51:30.001Z,16.30
2022-12-31T12:54:25.881Z,16.30
2022-12-31T12:57:26.138Z,16.30
2022-12-31T13:00:01.829Z,16.30
2022-12-31T13:02:59.109Z,16.30
2022-12-31T13:05:37.912Z,16.40
2022-12-31T13:08:32.257Z,16.40
2022-12-31T13:11:07.442Z,16.50
2022-12-31T13:13:47.246Z,16.50
2022-12-31T13:16:14.128Z,16.50
2022-12-31T13:19:16.510Z,16.50
2022-12-31T13:22:01.433Z,16.60
2022-12-31T13:24:51.478Z,16.50
2022-12-31T13:27:38.976Z,16.50
2022-12-31T13:30:16.426Z,16.50
2022-12-31T13:32:52.928Z,16.50
2022-12-31T13:35:50.633Z,16.50
2022-12-31T13:38:23.205Z,16.50
2022-12-31T13:41:12.803Z,16.50
2022-12-31T13:43:56.903Z,16.50
2022-12-31T13:46:59.204Z,16.60
2022-12-31T13:49:42.555Z,16.60
2022-12-31T13:52:27.215Z,16.60
2022-12-31T13:55:09.345Z,16.50
2022-12-31T13:57:39.269Z,16.50
2022-12-31T14:00:31.119Z,16.50
2022-12-31T14:03:28.228Z,16.60
2022-12-31T14:06:00.195Z,16.60
2022-12-31T14:08:27.864Z,16.60
2022-12-31T14:11:19.756Z,16.60
2022-12-31T14:14:04.390Z,16.60
2022-12-31T14:16:31.310Z,16.60
2022-12-31T14:19:18.879Z,16.60
2022-12-31T14:21:54.394Z,16.60
2022-12-31T14:24:49.779Z,16.60
2022-12-31T14:27:27.013Z,16.70
2022-12-31T14:30:01.800Z,16.60
2022-12-31T14:32:51.347Z,16.70
2022-12-31T14:36:02.851Z,16.60
2022-12-31T14:38:47.168Z,16.60
2022-12-31T14:41:45.103Z,16.60
2022-12-31T14:44:53.590Z,16.60
2022-12-31T14:47:42.105Z,16.60
2022-12-31T14:50:17.785Z,16.60
2022-12-31T14:52:54.749Z,16.60
2022-12-31T14:55:25.418Z,16.60
2022-12-31T14:58:26.336Z,16.60
2022-12-31T15:00:51.699Z,16.50
2022-12-31T15:03:18.705Z,16.50
2022-12-31T15:06:03.424Z,16.40
2022-12-31T15:08:52.198Z,16.40
2022-12-31T15:11:21.452Z,16.40
2022-12-31T15:13:51.340Z,16.40
2022-12-31T15:16:30.039Z,16.30
2022-12-31T15:19:19.260Z,16.30
2022-12-31T15:22:01.683Z,16.30
2022-12-31T15:24:30.862Z,16.20
2022-12-31T15:27:06.081Z,16.20
2022-12-31T15:29:43.956Z,16.20
2022-12-31T15:32:23.032Z,16.30
2022-12-31T15:35:01.901Z,16.20
2022-12-31T15:37:33.265Z,16.20
2022-12-31T15:40:26.061Z,16.20
2022-12-31T15:42:59.968Z,16.20
2022-12-31T15:45:33.905Z,16.20
2022-12-31T15:48:06.330Z,16.20
2022-12-31T15:50:37.893Z,16.20
2022-12-31T15:53:07.027Z,16.20
2022-12-31T15:55:38.586Z,16.20
2022-12-31T15:58:26.918Z,16.20
2022-12-31T16:01:09.977Z,16.10
2022-12-31T16:03:47.403Z,16.10
2022-12-31T16:06:16.443Z,16.10
2022-12-31T16:08:49.659Z,16.00
2022-12-31T16:11:20.071Z,16.00
2022-12-31T16:13:50.898Z,16.00
2022-12-31T16:16:29.775Z,16.00
2022-12-31T16:18:58.107Z,16.00
2022-12-31T16:21:25.072Z,16.00
2022-12-31T16:23:54.720Z,16.00
2022-12-31T16:26:24.878Z,16.00
2022-12-31T16:28:52.046Z,16.10
2022-12-31T16:31:23.683Z,16.10
2022-12-31T16:33:51.952Z,16.00
2022-12-31T16:36:23.826Z,16.00
2022-12-31T16:38:50.984Z,16.10
2022-12-31T16:41:20.069Z,16.10
2022-12-31T16:43:50.728Z,16.10
2022-12-31T16:46:31.946Z,16.20
2022-12-31T16:49:14.071Z,16.20
2022-12-31T16:51:41.599Z,16.20
2022-12-31T16:54:25.851Z,16.20
2022-12-31T16:56:55.256Z,16.20
2022-12-31T16:59:35.482Z,16.20
2022-12-31T17:02:18.352Z,16.20
2022-12-31T17:04:56.304Z,16.30
2022-12-31T17:07:32.410Z,16.30
2022-12-31T17:10:12.889Z,16.30
2022-12-31T17:13:25.493Z,16.30
2022-12-31T17:15:44.761Z,16.30
2022-12-31T17:18:22.762Z,16.40
2022-12-31T17:20:52.387Z,16.40
2022-12-31T17:23:31.426Z,16.40
2022-12-31T17:26:15.732Z,16.40
2022-12-31T17:28:50.863Z,16.40
2022-12-31T17:31:30.118Z,16.40
2022-12-31T17:34:14.364Z,16.40
2022-12-31T17:36:52.687Z,16.50
2022-12-31T17:39:22.461Z,16.50
2022-12-31T17:41:53.936Z,16.50
2022-12-31T17:44:29.123Z,16.50
2022-12-31T17:46:56.192Z,16.50
2022-12-31T17:49:27.528Z,16.50
2022-12-31T17:51:56.680Z,16.50
2022-12-31T17:54:25.747Z,16.50
2022-12-31T17:56:53.535Z,16.50
2022-12-31T17:59:29.731Z,16.50
2022-12-31T18:02:05.051Z,16.50
2022-12-31T18:04:32.067Z,16.50
2022-12-31T18:07:01.081Z,16.40
2022-12-31T18:09:32.136Z,16.50
2022-12-31T18:12:01.825Z,16.40
2022-12-31T18:14:29.023Z,16.40
2022-12-31T18:16:56.176Z,16.40
2022-12-31T18:22:16.006Z,16.40
2022-12-31T18:24:44.936Z,16.40
2022-12-31T18:27:18.906Z,16.40
2022-12-31T18:29:46.319Z,16.40
2022-12-31T18:32:28.604Z,16.40
2022-12-31T18:34:55.541Z,16.40
2022-12-31T18:37:22.833Z,16.30
2022-12-31T18:39:49.765Z,16.30
2022-12-31T18:42:18.458Z,16.30
2022-12-31T18:44:45.614Z,16.30
2022-12-31T18:47:18.002Z,16.30
2022-12-31T18:49:44.961Z,16.30
2022-12-31T18:52:19.781Z,16.30
2022-12-31T18:54:49.425Z,16.30
2022-12-31T18:57:16.708Z,16.30
2022-12-31T18:59:45.669Z,16.20
2022-12-31T19:02:18.950Z,16.20
2022-12-31T19:04:49.495Z,16.20
2022-12-31T19:07:16.441Z,16.10
2022-12-31T19:09:47.137Z,16.10
2022-12-31T19:12:15.294Z,16.10
2022-12-31T19:14:42.366Z,16.10
2022-12-31T19:19:37.151Z,16.00
2022-12-31T19:22:04.000Z,16.00
2022-12-31T19:24:30.981Z,15.90
2022-12-31T19:27:24.665Z,15.90
2022-12-31T19:29:51.860Z,15.90
2022-12-31T19:32:18.760Z,15.90
2022-12-31T19:34:45.615Z,15.90
2022-12-31T19:37:15.324Z,15.80
2022-12-31T19:39:44.347Z,15.80
2022-12-31T19:42:15.362Z,15.80
2022-12-31T19:44:42.167Z,15.80
2022-12-31T19:47:12.980Z,15.80
2022-12-31T19:49:42.353Z,15.80
2022-12-31T19:52:09.198Z,15.80
2022-12-31T19:54:36.039Z,15.80
2022-12-31T19:57:03.013Z,15.70
2022-12-31T19:59:30.173Z,15.80
2022-12-31T20:01:57.129Z,15.70
2022-12-31T20:04:26.768Z,15.70
2022-12-31T20:06:55.756Z,15.80
2022-12-31T20:09:27.065Z,15.80
2022-12-31T20:11:56.515Z,15.80
2022-12-31T20:14:23.326Z,15.80
2022-12-31T20:16:50.199Z,15.80
2022-12-31T20:19:19.647Z,15.80
2022-12-31T20:21:48.794Z,15.80
2022-12-31T20:24:18.197Z,15.90
2022-12-31T20:26:47.410Z,15.90
2022-12-31T20:29:16.721Z,15.90
2022-12-31T20:31:43.662Z,15.90
2022-12-31T20:34:13.579Z,15.90
2022-12-31T20:36:42.561Z,15.90
2022-12-31T20:39:11.696Z,15.90
2022-12-31T20:41:43.788Z,15.90
2022-12-31T20:44:13.498Z,15.90
2022-12-31T20:46:40.802Z,15.90
2022-12-31T20:49:10.223Z,15.90
2022-12-31T20:51:37.160Z,15.90
2022-12-31T20:54:10.125Z,15.90
2022-12-31T20:56:41.413Z,15.90
2022-12-31T20:59:09.471Z,16.00
2022-12-31T21:02:11.673Z,15.90
2022-12-31T21:04:26.483Z,16.00
2022-12-31T21:06:53.503Z,16.00
2022-12-31T21:09:22.720Z,16.00
2022-12-31T21:12:08.078Z,16.00
2022-12-31T21:14:38.503Z,16.00
2022-12-31T21:17:10.376Z,16.00
2022-12-31T21:19:39.373Z,16.00
2022-12-31T21:22:08.296Z,16.00
2022-12-31T21:24:39.007Z,16.00
2022-12-31T21:27:06.535Z,16.00
2022-12-31T21:29:34.908Z,16.00
2022-12-31T21:32:05.033Z,16.00
2022-12-31T21:34:31.940Z,16.00
2022-12-31T21:36:58.935Z,16.00
2022-12-31T21:39:28.132Z,16.00
2022-12-31T21:41:57.370Z,15.90
2022-12-31T21:44:25.926Z,16.00
2022-12-31T21:47:38.605Z,16.00
2022-12-31T21:50:07.306Z,16.00
2022-12-31T21:52:35.075Z,16.00
2022-12-31T21:55:23.681Z,16.00
2022-12-31T21:58:24.697Z,16.00
2022-12-31T22:00:57.421Z,16.00
2022-12-31T22:03:29.564Z,16.00
2022-12-31T22:05:59.955Z,16.00
2022-12-31T22:08:28.745Z,16.10
2022-12-31T22:10:58.084Z,16.00
2022-12-31T22:13:24.925Z,16.00
2022-12-31T22:16:01.813Z,16.00
2022-12-31T22:18:38.505Z,16.00
2022-12-31T22:21:18.290Z,16.00
2022-12-31T22:23:52.470Z,16.00
2022-12-31T22:26:22.327Z,16.00
2022-12-31T22:28:49.650Z,16.00
2022-12-31T22:31:23.064Z,16.00
2022-12-31T22:33:50.339Z,15.90
2022-12-31T22:36:20.068Z,15.90
2022-12-31T22:38:47.566Z,15.90
2022-12-31T22:41:20.655Z,15.90
2022-12-31T22:43:50.599Z,16.00
2022-12-31T22:46:25.938Z,16.00
2022-12-31T22:48:56.550Z,15.90
2022-12-31T22:51:54.774Z,15.90
2022-12-31T22:54:15.466Z,15.90
2022-12-31T22:56:42.409Z,15.90
2022-12-31T22:59:09.583Z,15.90
2022-12-31T23:01:40.676Z,15.90
2022-12-31T23:04:10.695Z,15.90
2022-12-31T23:06:43.552Z,15.80
2022-12-31T23:09:30.328Z,15.80
2022-12-31T23:11:59.983Z,15.80
2022-12-31T23:14:47.838Z,15.70
2022-12-31T23:17:37.405Z,15.80
2022-12-31T23:20:26.113Z,15.70
2022-12-31T23:23:10.813Z,15.70
2022-12-31T23:25:40.736Z,15.70
2022-12-31T23:28:10.069Z,15.70
2022-12-31T23:30:42.967Z,15.70
2022-12-31T23:33:25.129Z,15.70
2022-12-31T23:36:02.904Z,15.70
2022-12-31T23:38:29.806Z,15.70
2022-12-31T23:40:58.711Z,15.60
2022-12-31T23:43:27.671Z,15.60
2022-12-31T23:45:56.789Z,15.60
2022-12-31T23:48:23.596Z,15.60
2022-12-31T23:50:53.750Z,15.60
2022-12-31T23:53:24.296Z,15.60
2022-12-31T23:55:52.406Z,15.60
2022-12-31T23:58:22.014Z,15.60
